sensor_id;sensor_type;location;lat;lon;timestamp;temperature;humidity
63371;DHT22;49504;48.336;14.472;2023-03-04T00:01:45;25.00;37.50
63371;DHT22;49504;48.336;14.472;2023-03-04T00:05:07;25.00;37.50
63371;DHT22;49504;48.336;14.472;2023-03-04T00:08:29;25.00;37.50
63371;DHT22;49504;48.336;14.472;2023-03-04T00:11:51;25.00;37.60
63371;DHT22;49504;48.336;14.472;2023-03-04T00:15:12;25.00;37.50
63371;DHT22;49504;48.336;14.472;2023-03-04T00:18:34;25.00;37.50
63371;DHT22;49504;48.336;14.472;2023-03-04T00:21:55;25.00;37.50
63371;DHT22;49504;48.336;14.472;2023-03-04T00:25:16;25.00;37.60
63371;DHT22;49504;48.336;14.472;2023-03-04T00:28:39;25.00;37.50
63371;DHT22;49504;48.336;14.472;2023-03-04T00:32:00;25.00;37.50
63371;DHT22;49504;48.336;14.472;2023-03-04T00:35:21;25.00;37.50
63371;DHT22;49504;48.336;14.472;2023-03-04T00:38:42;25.00;37.50
63371;DHT22;49504;48.336;14.472;2023-03-04T00:42:03;25.00;37.60
63371;DHT22;49504;48.336;14.472;2023-03-04T00:45:26;25.00;37.60
63371;DHT22;49504;48.336;14.472;2023-03-04T00:48:47;25.00;37.60
63371;DHT22;49504;48.336;14.472;2023-03-04T00:52:08;25.00;37.60
63371;DHT22;49504;48.336;14.472;2023-03-04T00:55:29;25.00;37.60
63371;DHT22;49504;48.336;14.472;2023-03-04T00:58:51;25.00;37.60
63371;DHT22;49504;48.336;14.472;2023-03-04T01:02:13;24.90;37.60
63371;DHT22;49504;48.336;14.472;2023-03-04T01:05:34;25.00;37.60
63371;DHT22;49504;48.336;14.472;2023-03-04T01:08:55;24.90;37.50
63371;DHT22;49504;48.336;14.472;2023-03-04T01:12:16;24.90;37.60
63371;DHT22;49504;48.336;14.472;2023-03-04T01:15:38;24.90;37.50
63371;DHT22;49504;48.336;14.472;2023-03-04T01:19:01;24.90;37.50
63371;DHT22;49504;48.336;14.472;2023-03-04T01:22:22;24.90;37.50
63371;DHT22;49504;48.336;14.472;2023-03-04T01:25:43;24.90;37.50
63371;DHT22;49504;48.336;14.472;2023-03-04T01:29:04;24.90;37.50
63371;DHT22;49504;48.336;14.472;2023-03-04T01:32:25;24.90;37.50
63371;DHT22;49504;48.336;14.472;2023-03-04T01:35:48;24.90;37.50
63371;DHT22;49504;48.336;14.472;2023-03-04T01:39:09;24.90;37.60
63371;DHT22;49504;48.336;14.472;2023-03-04T01:42:33;24.90;37.50
63371;DHT22;49504;48.336;14.472;2023-03-04T01:45:55;24.90;37.50
63371;DHT22;49504;48.336;14.472;2023-03-04T01:49:19;24.80;37.40
63371;DHT22;49504;48.336;14.472;2023-03-04T01:52:42;24.90;37.50
63371;DHT22;49504;48.336;14.472;2023-03-04T01:56:11;24.90;37.60
63371;DHT22;49504;48.336;14.472;2023-03-04T01:59:35;24.80;37.50
63371;DHT22;49504;48.336;14.472;2023-03-04T02:02:58;24.90;37.60
63371;DHT22;49504;48.336;14.472;2023-03-04T02:06:21;24.80;37.60
63371;DHT22;49504;48.336;14.472;2023-03-04T02:09:44;24.80;37.60
63371;DHT22;49504;48.336;14.472;2023-03-04T02:13:07;24.90;37.80
63371;DHT22;49504;48.336;14.472;2023-03-04T02:16:28;24.80;37.70
63371;DHT22;49504;48.336;14.472;2023-03-04T02:22:56;24.80;37.10
63371;DHT22;49504;48.336;14.472;2023-03-04T02:26:24;24.80;37.70
63371;DHT22;49504;48.336;14.472;2023-03-04T02:29:47;24.80;37.70
63371;DHT22;49504;48.336;14.472;2023-03-04T02:33:14;24.80;37.70
63371;DHT22;49504;48.336;14.472;2023-03-04T02:36:37;24.80;37.70
63371;DHT22;49504;48.336;14.472;2023-03-04T02:39:59;24.80;37.70
63371;DHT22;49504;48.336;14.472;2023-03-04T02:43:21;24.80;37.80
63371;DHT22;49504;48.336;14.472;2023-03-04T02:46:43;24.80;37.80
63371;DHT22;49504;48.336;14.472;2023-03-04T02:50:05;24.80;37.80
63371;DHT22;49504;48.336;14.472;2023-03-04T02:53:26;24.80;37.80
63371;DHT22;49504;48.336;14.472;2023-03-04T02:56:49;24.80;37.80
63371;DHT22;49504;48.336;14.472;2023-03-04T03:00:14;24.80;37.80
63371;DHT22;49504;48.336;14.472;2023-03-04T03:03:36;24.80;37.80
63371;DHT22;49504;48.336;14.472;2023-03-04T03:06:58;24.70;37.70
63371;DHT22;49504;48.336;14.472;2023-03-04T03:10:20;24.70;37.70
63371;DHT22;49504;48.336;14.472;2023-03-04T03:13:42;24.70;37.70
63371;DHT22;49504;48.336;14.472;2023-03-04T03:17:04;24.70;37.70
63371;DHT22;49504;48.336;14.472;2023-03-04T03:20:26;24.70;37.70
63371;DHT22;49504;48.336;14.472;2023-03-04T03:23:47;24.70;37.70
63371;DHT22;49504;48.336;14.472;2023-03-04T03:27:08;24.70;37.60
63371;DHT22;49504;48.336;14.472;2023-03-04T03:30:29;24.70;37.60
63371;DHT22;49504;48.336;14.472;2023-03-04T03:33:52;24.70;37.60
63371;DHT22;49504;48.336;14.472;2023-03-04T03:37:13;24.70;37.60
63371;DHT22;49504;48.336;14.472;2023-03-04T03:40:35;24.70;37.60
63371;DHT22;49504;48.336;14.472;2023-03-04T03:43:56;24.70;37.60
63371;DHT22;49504;48.336;14.472;2023-03-04T03:47:36;24.70;37.00
63371;DHT22;49504;48.336;14.472;2023-03-04T03:50:58;24.70;37.60
63371;DHT22;49504;48.336;14.472;2023-03-04T03:54:19;24.70;37.60
63371;DHT22;49504;48.336;14.472;2023-03-04T03:57:40;24.70;37.50
63371;DHT22;49504;48.336;14.472;2023-03-04T04:01:01;24.70;37.60
63371;DHT22;49504;48.336;14.472;2023-03-04T04:04:24;24.70;37.50
63371;DHT22;49504;48.336;14.472;2023-03-04T04:07:45;24.70;37.60
63371;DHT22;49504;48.336;14.472;2023-03-04T04:11:08;24.60;37.60
63371;DHT22;49504;48.336;14.472;2023-03-04T04:14:29;24.70;37.70
63371;DHT22;49504;48.336;14.472;2023-03-04T04:17:50;24.70;37.70
63371;DHT22;49504;48.336;14.472;2023-03-04T04:21:13;24.70;37.60
63371;DHT22;49504;48.336;14.472;2023-03-04T04:24:34;24.60;37.50
63371;DHT22;49504;48.336;14.472;2023-03-04T04:27:55;24.70;37.70
63371;DHT22;49504;48.336;14.472;2023-03-04T04:31:16;24.70;37.70
63371;DHT22;49504;48.336;14.472;2023-03-04T04:34:37;24.70;37.70
63371;DHT22;49504;48.336;14.472;2023-03-04T04:38:00;24.70;37.60
63371;DHT22;49504;48.336;14.472;2023-03-04T04:41:24;24.60;37.60
63371;DHT22;49504;48.336;14.472;2023-03-04T04:44:49;24.60;37.70
63371;DHT22;49504;48.336;14.472;2023-03-04T04:48:10;24.70;37.70
63371;DHT22;49504;48.336;14.472;2023-03-04T04:51:32;24.60;37.70
63371;DHT22;49504;48.336;14.472;2023-03-04T04:54:55;24.60;37.70
63371;DHT22;49504;48.336;14.472;2023-03-04T04:58:16;24.60;37.70
63371;DHT22;49504;48.336;14.472;2023-03-04T05:01:38;24.60;37.60
63371;DHT22;49504;48.336;14.472;2023-03-04T05:04:59;24.60;37.70
63371;DHT22;49504;48.336;14.472;2023-03-04T05:08:20;24.60;37.70
63371;DHT22;49504;48.336;14.472;2023-03-04T05:11:42;24.60;37.60
63371;DHT22;49504;48.336;14.472;2023-03-04T05:17:22;24.60;37.10
63371;DHT22;49504;48.336;14.472;2023-03-04T05:20:43;24.60;37.70
63371;DHT22;49504;48.336;14.472;2023-03-04T05:24:06;24.60;37.90
63371;DHT22;49504;48.336;14.472;2023-03-04T05:27:27;24.60;37.80
63371;DHT22;49504;48.336;14.472;2023-03-04T05:30:49;24.60;37.80
63371;DHT22;49504;48.336;14.472;2023-03-04T05:34:11;24.60;37.70
63371;DHT22;49504;48.336;14.472;2023-03-04T05:37:33;24.60;37.80
63371;DHT22;49504;48.336;14.472;2023-03-04T05:40:58;24.60;37.80
63371;DHT22;49504;48.336;14.472;2023-03-04T05:44:20;24.60;37.60
63371;DHT22;49504;48.336;14.472;2023-03-04T05:48:28;24.60;37.20
63371;DHT22;49504;48.336;14.472;2023-03-04T05:51:49;24.60;37.90
63371;DHT22;49504;48.336;14.472;2023-03-04T05:55:11;24.60;37.40
63371;DHT22;49504;48.336;14.472;2023-03-04T05:58:32;24.50;37.20
63371;DHT22;49504;48.336;14.472;2023-03-04T06:01:54;24.50;37.20
63371;DHT22;49504;48.336;14.472;2023-03-04T06:05:18;24.50;37.10
63371;DHT22;49504;48.336;14.472;2023-03-04T06:08:39;24.50;36.50
63371;DHT22;49504;48.336;14.472;2023-03-04T06:12:01;24.50;36.30
63371;DHT22;49504;48.336;14.472;2023-03-04T06:15:22;24.50;36.80
63371;DHT22;49504;48.336;14.472;2023-03-04T06:18:43;24.50;36.80
63371;DHT22;49504;48.336;14.472;2023-03-04T06:22:06;24.50;37.00
63371;DHT22;49504;48.336;14.472;2023-03-04T06:25:27;24.40;37.10
63371;DHT22;49504;48.336;14.472;2023-03-04T06:28:50;24.40;37.30
63371;DHT22;49504;48.336;14.472;2023-03-04T06:32:11;24.40;37.30
63371;DHT22;49504;48.336;14.472;2023-03-04T06:35:33;24.40;37.40
63371;DHT22;49504;48.336;14.472;2023-03-04T06:39:54;24.40;36.90
63371;DHT22;49504;48.336;14.472;2023-03-04T06:43:15;24.40;37.50
63371;DHT22;49504;48.336;14.472;2023-03-04T06:46:37;24.40;37.60
63371;DHT22;49504;48.336;14.472;2023-03-04T06:49:59;24.40;37.60
63371;DHT22;49504;48.336;14.472;2023-03-04T06:53:21;24.40;37.80
63371;DHT22;49504;48.336;14.472;2023-03-04T06:56:44;24.40;37.70
63371;DHT22;49504;48.336;14.472;2023-03-04T07:00:07;24.40;37.00
63371;DHT22;49504;48.336;14.472;2023-03-04T07:03:29;24.40;35.50
63371;DHT22;49504;48.336;14.472;2023-03-04T07:06:50;24.40;33.70
63371;DHT22;49504;48.336;14.472;2023-03-04T07:10:12;24.30;33.30
63371;DHT22;49504;48.336;14.472;2023-03-04T07:13:34;24.20;33.70
63371;DHT22;49504;48.336;14.472;2023-03-04T07:16:56;24.20;34.10
63371;DHT22;49504;48.336;14.472;2023-03-04T07:20:17;24.20;34.50
63371;DHT22;49504;48.336;14.472;2023-03-04T07:23:39;24.20;34.60
63371;DHT22;49504;48.336;14.472;2023-03-04T07:27:01;24.20;35.00
63371;DHT22;49504;48.336;14.472;2023-03-04T07:30:24;24.20;35.30
63371;DHT22;49504;48.336;14.472;2023-03-04T07:33:45;24.10;35.40
63371;DHT22;49504;48.336;14.472;2023-03-04T07:37:06;24.20;35.70
63371;DHT22;49504;48.336;14.472;2023-03-04T07:40:28;24.10;35.80
63371;DHT22;49504;48.336;14.472;2023-03-04T07:43:49;24.20;35.90
63371;DHT22;49504;48.336;14.472;2023-03-04T07:47:12;24.20;36.10
63371;DHT22;49504;48.336;14.472;2023-03-04T07:50:33;24.20;36.10
63371;DHT22;49504;48.336;14.472;2023-03-04T07:53:56;24.20;36.20
63371;DHT22;49504;48.336;14.472;2023-03-04T07:57:18;24.20;35.80
63371;DHT22;49504;48.336;14.472;2023-03-04T08:00:39;24.20;33.90
63371;DHT22;49504;48.336;14.472;2023-03-04T08:04:02;24.20;34.40
63371;DHT22;49504;48.336;14.472;2023-03-04T08:07:24;24.20;34.10
63371;DHT22;49504;48.336;14.472;2023-03-04T08:10:45;24.20;34.40
63371;DHT22;49504;48.336;14.472;2023-03-04T08:14:07;24.20;34.70
63371;DHT22;49504;48.336;14.472;2023-03-04T08:17:28;24.20;34.70
63371;DHT22;49504;48.336;14.472;2023-03-04T08:20:51;24.20;34.90
63371;DHT22;49504;48.336;14.472;2023-03-04T08:24:12;24.20;35.10
63371;DHT22;49504;48.336;14.472;2023-03-04T08:27:34;24.20;35.00
63371;DHT22;49504;48.336;14.472;2023-03-04T08:33:22;24.30;34.80
63371;DHT22;49504;48.336;14.472;2023-03-04T08:36:43;24.30;35.30
63371;DHT22;49504;48.336;14.472;2023-03-04T08:40:06;24.30;35.60
63371;DHT22;49504;48.336;14.472;2023-03-04T08:43:28;24.30;35.70
63371;DHT22;49504;48.336;14.472;2023-03-04T08:46:50;24.30;35.70
63371;DHT22;49504;48.336;14.472;2023-03-04T08:50:13;24.30;35.80
63371;DHT22;49504;48.336;14.472;2023-03-04T08:53:36;24.30;36.10
63371;DHT22;49504;48.336;14.472;2023-03-04T08:56:58;24.40;36.30
63371;DHT22;49504;48.336;14.472;2023-03-04T09:00:19;24.40;36.90
63371;DHT22;49504;48.336;14.472;2023-03-04T09:03:41;24.40;36.20
63371;DHT22;49504;48.336;14.472;2023-03-04T09:07:04;24.40;35.50
63371;DHT22;49504;48.336;14.472;2023-03-04T09:10:26;24.40;35.70
63371;DHT22;49504;48.336;14.472;2023-03-04T09:13:47;24.40;35.60
63371;DHT22;49504;48.336;14.472;2023-03-04T09:17:08;24.40;35.70
63371;DHT22;49504;48.336;14.472;2023-03-04T09:20:29;24.40;35.80
63371;DHT22;49504;48.336;14.472;2023-03-04T09:26:59;24.40;35.40
63371;DHT22;49504;48.336;14.472;2023-03-04T09:30:21;24.50;36.30
63371;DHT22;49504;48.336;14.472;2023-03-04T09:33:42;24.50;36.70
63371;DHT22;49504;48.336;14.472;2023-03-04T09:37:03;24.50;36.50
63371;DHT22;49504;48.336;14.472;2023-03-04T09:40:27;24.50;36.60
63371;DHT22;49504;48.336;14.472;2023-03-04T09:43:52;24.60;36.70
63371;DHT22;49504;48.336;14.472;2023-03-04T09:47:15;24.60;36.70
63371;DHT22;49504;48.336;14.472;2023-03-04T09:50:42;24.70;36.60
63371;DHT22;49504;48.336;14.472;2023-03-04T09:54:08;24.80;36.70
63371;DHT22;49504;48.336;14.472;2023-03-04T09:57:42;24.90;36.70
63371;DHT22;49504;48.336;14.472;2023-03-04T10:03:13;25.10;36.20
63371;DHT22;49504;48.336;14.472;2023-03-04T10:06:38;25.10;36.00
63371;DHT22;49504;48.336;14.472;2023-03-04T10:10:03;25.20;35.00
63371;DHT22;49504;48.336;14.472;2023-03-04T10:13:32;25.20;34.80
63371;DHT22;49504;48.336;14.472;2023-03-04T10:16:59;25.30;34.30
63371;DHT22;49504;48.336;14.472;2023-03-04T10:20:32;25.30;33.90
63371;DHT22;49504;48.336;14.472;2023-03-04T10:24:10;25.30;34.00
63371;DHT22;49504;48.336;14.472;2023-03-04T10:27:32;25.30;33.90
63371;DHT22;49504;48.336;14.472;2023-03-04T10:30:58;25.30;33.30
63371;DHT22;49504;48.336;14.472;2023-03-04T10:34:22;25.20;33.40
63371;DHT22;49504;48.336;14.472;2023-03-04T10:37:50;25.20;33.00
63371;DHT22;49504;48.336;14.472;2023-03-04T10:41:12;25.20;33.20
63371;DHT22;49504;48.336;14.472;2023-03-04T10:44:35;25.20;32.80
63371;DHT22;49504;48.336;14.472;2023-03-04T10:48:01;25.10;32.30
63371;DHT22;49504;48.336;14.472;2023-03-04T10:51:25;25.10;32.60
63371;DHT22;49504;48.336;14.472;2023-03-04T10:54:52;25.10;32.80
63371;DHT22;49504;48.336;14.472;2023-03-04T10:58:15;25.00;32.70
63371;DHT22;49504;48.336;14.472;2023-03-04T11:01:37;24.90;32.40
63371;DHT22;49504;48.336;14.472;2023-03-04T11:05:17;24.90;32.70
63371;DHT22;49504;48.336;14.472;2023-03-04T11:08:41;24.90;32.90
63371;DHT22;49504;48.336;14.472;2023-03-04T11:12:08;24.90;32.80
63371;DHT22;49504;48.336;14.472;2023-03-04T11:15:48;24.80;32.80
63371;DHT22;49504;48.336;14.472;2023-03-04T11:19:14;24.80;32.80
63371;DHT22;49504;48.336;14.472;2023-03-04T11:22:36;24.80;32.50
63371;DHT22;49504;48.336;14.472;2023-03-04T11:26:01;24.70;32.40
63371;DHT22;49504;48.336;14.472;2023-03-04T11:29:29;24.70;32.20
63371;DHT22;49504;48.336;14.472;2023-03-04T11:32:55;24.70;32.30
63371;DHT22;49504;48.336;14.472;2023-03-04T11:36:31;24.70;32.00
63371;DHT22;49504;48.336;14.472;2023-03-04T11:39:57;24.70;31.80
63371;DHT22;49504;48.336;14.472;2023-03-04T11:43:24;24.70;31.70
63371;DHT22;49504;48.336;14.472;2023-03-04T11:47:05;24.70;31.80
63371;DHT22;49504;48.336;14.472;2023-03-04T11:50:37;24.70;32.20
63371;DHT22;49504;48.336;14.472;2023-03-04T11:54:20;24.70;32.30
63371;DHT22;49504;48.336;14.472;2023-03-04T11:57:52;24.70;32.50
63371;DHT22;49504;48.336;14.472;2023-03-04T12:01:24;24.70;32.50
63371;DHT22;49504;48.336;14.472;2023-03-04T12:05:01;24.80;32.60
63371;DHT22;49504;48.336;14.472;2023-03-04T12:08:59;24.80;32.80
63371;DHT22;49504;48.336;14.472;2023-03-04T12:12:34;24.80;33.00
63371;DHT22;49504;48.336;14.472;2023-03-04T12:16:18;24.80;33.00
63371;DHT22;49504;48.336;14.472;2023-03-04T12:20:18;24.90;33.30
63371;DHT22;49504;48.336;14.472;2023-03-04T12:24:28;24.90;33.30
63371;DHT22;49504;48.336;14.472;2023-03-04T12:28:12;24.90;33.40
63371;DHT22;49504;48.336;14.472;2023-03-04T12:31:43;25.00;33.60
63371;DHT22;49504;48.336;14.472;2023-03-04T12:35:32;25.00;33.70
63371;DHT22;49504;48.336;14.472;2023-03-04T12:39:12;25.00;33.70
63371;DHT22;49504;48.336;14.472;2023-03-04T12:42:54;25.00;33.70
63371;DHT22;49504;48.336;14.472;2023-03-04T12:48:30;25.10;33.30
63371;DHT22;49504;48.336;14.472;2023-03-04T12:52:00;25.10;34.00
63371;DHT22;49504;48.336;14.472;2023-03-04T12:55:34;25.10;34.10
63371;DHT22;49504;48.336;14.472;2023-03-04T12:58:57;25.10;34.10
63371;DHT22;49504;48.336;14.472;2023-03-04T13:02:40;25.20;34.20
63371;DHT22;49504;48.336;14.472;2023-03-04T13:06:13;25.20;34.20
63371;DHT22;49504;48.336;14.472;2023-03-04T13:09:49;25.20;34.30
63371;DHT22;49504;48.336;14.472;2023-03-04T13:13:35;25.20;34.30
63371;DHT22;49504;48.336;14.472;2023-03-04T13:17:00;25.30;34.40
63371;DHT22;49504;48.336;14.472;2023-03-04T13:20:37;25.30;34.50
63371;DHT22;49504;48.336;14.472;2023-03-04T13:28:15;25.30;34.60
63371;DHT22;49504;48.336;14.472;2023-03-04T13:34:47;25.30;34.00
63371;DHT22;49504;48.336;14.472;2023-03-04T13:38:21;25.40;34.90
63371;DHT22;49504;48.336;14.472;2023-03-04T13:41:48;25.40;34.90
63371;DHT22;49504;48.336;14.472;2023-03-04T13:45:33;25.40;35.00
63371;DHT22;49504;48.336;14.472;2023-03-04T13:49:01;25.40;34.90
63371;DHT22;49504;48.336;14.472;2023-03-04T13:52:39;25.50;35.10
63371;DHT22;49504;48.336;14.472;2023-03-04T13:56:04;25.50;35.10
63371;DHT22;49504;48.336;14.472;2023-03-04T13:59:31;25.50;35.30
63371;DHT22;49504;48.336;14.472;2023-03-04T14:02:53;25.50;35.30
63371;DHT22;49504;48.336;14.472;2023-03-04T14:06:17;25.50;35.30
63371;DHT22;49504;48.336;14.472;2023-03-04T14:09:53;25.50;35.30
63371;DHT22;49504;48.336;14.472;2023-03-04T14:13:18;25.50;35.30
63371;DHT22;49504;48.336;14.472;2023-03-04T14:16:45;25.60;35.50
63371;DHT22;49504;48.336;14.472;2023-03-04T14:20:22;25.60;35.50
63371;DHT22;49504;48.336;14.472;2023-03-04T14:23:45;25.60;35.40
63371;DHT22;49504;48.336;14.472;2023-03-04T14:27:12;25.60;35.60
63371;DHT22;49504;48.336;14.472;2023-03-04T14:30:34;25.60;35.70
63371;DHT22;49504;48.336;14.472;2023-03-04T14:33:57;25.60;35.70
63371;DHT22;49504;48.336;14.472;2023-03-04T14:38:22;25.60;35.00
63371;DHT22;49504;48.336;14.472;2023-03-04T14:42:45;25.60;34.90
63371;DHT22;49504;48.336;14.472;2023-03-04T14:46:07;25.60;35.70
63371;DHT22;49504;48.336;14.472;2023-03-04T14:49:32;25.70;35.70
63371;DHT22;49504;48.336;14.472;2023-03-04T14:53:10;25.60;35.60
63371;DHT22;49504;48.336;14.472;2023-03-04T14:56:35;25.60;35.60
63371;DHT22;49504;48.336;14.472;2023-03-04T15:00:13;25.60;35.70
63371;DHT22;49504;48.336;14.472;2023-03-04T15:03:36;25.60;35.60
63371;DHT22;49504;48.336;14.472;2023-03-04T15:06:57;25.70;35.80
63371;DHT22;49504;48.336;14.472;2023-03-04T15:10:22;25.60;35.70
63371;DHT22;49504;48.336;14.472;2023-03-04T15:13:46;25.60;35.70
63371;DHT22;49504;48.336;14.472;2023-03-04T15:17:23;25.60;35.80
63371;DHT22;49504;48.336;14.472;2023-03-04T15:20:55;25.60;35.70
63371;DHT22;49504;48.336;14.472;2023-03-04T15:24:17;25.60;35.70
63371;DHT22;49504;48.336;14.472;2023-03-04T15:27:38;25.60;35.80
63371;DHT22;49504;48.336;14.472;2023-03-04T15:30:59;25.60;35.80
63371;DHT22;49504;48.336;14.472;2023-03-04T15:34:22;25.60;35.90
63371;DHT22;49504;48.336;14.472;2023-03-04T15:37:43;25.60;35.80
63371;DHT22;49504;48.336;14.472;2023-03-04T15:41:05;25.60;35.80
63371;DHT22;49504;48.336;14.472;2023-03-04T15:44:28;25.50;35.80
63371;DHT22;49504;48.336;14.472;2023-03-04T15:47:50;25.60;35.90
63371;DHT22;49504;48.336;14.472;2023-03-04T15:51:14;25.50;35.70
63371;DHT22;49504;48.336;14.472;2023-03-04T15:54:37;25.50;35.60
63371;DHT22;49504;48.336;14.472;2023-03-04T15:57:59;25.50;36.30
63371;DHT22;49504;48.336;14.472;2023-03-04T16:01:20;25.50;35.60
63371;DHT22;49504;48.336;14.472;2023-03-04T16:04:41;25.50;35.70
63371;DHT22;49504;48.336;14.472;2023-03-04T16:08:04;25.50;35.70
63371;DHT22;49504;48.336;14.472;2023-03-04T18:42:59;25.20;36.60
63371;DHT22;49504;48.336;14.472;2023-03-04T18:46:47;25.20;36.00
63371;DHT22;49504;48.336;14.472;2023-03-04T18:50:10;25.10;36.60
63371;DHT22;49504;48.336;14.472;2023-03-04T18:53:32;25.20;36.70
63371;DHT22;49504;48.336;14.472;2023-03-04T18:56:56;25.20;36.80
63371;DHT22;49504;48.336;14.472;2023-03-04T19:00:20;25.10;36.80
63371;DHT22;49504;48.336;14.472;2023-03-04T19:03:43;25.20;36.80
63371;DHT22;49504;48.336;14.472;2023-03-04T19:07:05;25.20;36.80
63371;DHT22;49504;48.336;14.472;2023-03-04T19:10:27;25.20;36.80
63371;DHT22;49504;48.336;14.472;2023-03-04T19:13:48;25.10;36.70
63371;DHT22;49504;48.336;14.472;2023-03-04T19:17:09;25.20;36.80
63371;DHT22;49504;48.336;14.472;2023-03-04T19:20:32;25.20;36.80
63371;DHT22;49504;48.336;14.472;2023-03-04T19:23:53;25.20;36.80
63371;DHT22;49504;48.336;14.472;2023-03-04T19:27:14;25.20;36.70
63371;DHT22;49504;48.336;14.472;2023-03-04T19:30:35;25.20;36.70
63371;DHT22;49504;48.336;14.472;2023-03-04T19:33:57;25.20;36.80
63371;DHT22;49504;48.336;14.472;2023-03-04T19:37:20;25.20;36.70
63371;DHT22;49504;48.336;14.472;2023-03-04T19:40:41;25.20;36.70
63371;DHT22;49504;48.336;14.472;2023-03-04T19:44:02;25.10;36.70
63371;DHT22;49504;48.336;14.472;2023-03-04T19:47:23;25.20;36.70
63371;DHT22;49504;48.336;14.472;2023-03-04T19:50:44;25.10;36.70
63371;DHT22;49504;48.336;14.472;2023-03-04T19:54:07;25.10;36.70
63371;DHT22;49504;48.336;14.472;2023-03-04T19:57:28;25.20;36.70
63371;DHT22;49504;48.336;14.472;2023-03-04T20:00:49;25.20;36.70
63371;DHT22;49504;48.336;14.472;2023-03-04T20:04:12;25.20;36.70
63371;DHT22;49504;48.336;14.472;2023-03-04T20:07:34;25.10;36.70
63371;DHT22;49504;48.336;14.472;2023-03-04T20:10:56;25.10;36.70
63371;DHT22;49504;48.336;14.472;2023-03-04T20:14:17;25.10;36.60
63371;DHT22;49504;48.336;14.472;2023-03-04T20:17:39;25.10;36.60
63371;DHT22;49504;48.336;14.472;2023-03-04T20:21:00;25.10;36.70
63371;DHT22;49504;48.336;14.472;2023-03-04T20:25:16;25.10;36.00
63371;DHT22;49504;48.336;14.472;2023-03-04T20:28:37;25.10;37.20
63371;DHT22;49504;48.336;14.472;2023-03-04T20:31:59;25.10;36.70
63371;DHT22;49504;48.336;14.472;2023-03-04T20:37:30;25.10;36.20
63371;DHT22;49504;48.336;14.472;2023-03-04T20:40:51;25.10;36.90
63371;DHT22;49504;48.336;14.472;2023-03-04T20:44:13;25.10;37.00
63371;DHT22;49504;48.336;14.472;2023-03-04T20:47:34;25.10;36.90
63371;DHT22;49504;48.336;14.472;2023-03-04T20:50:55;25.10;36.90
63371;DHT22;49504;48.336;14.472;2023-03-04T20:54:18;25.10;37.00
63371;DHT22;49504;48.336;14.472;2023-03-04T20:57:39;25.10;37.10
63371;DHT22;49504;48.336;14.472;2023-03-04T21:01:01;25.10;37.20
63371;DHT22;49504;48.336;14.472;2023-03-04T21:04:22;25.10;37.00
63371;DHT22;49504;48.336;14.472;2023-03-04T21:07:43;25.10;37.10
63371;DHT22;49504;48.336;14.472;2023-03-04T21:11:09;25.10;37.10
63371;DHT22;49504;48.336;14.472;2023-03-04T21:14:30;25.10;37.10
63371;DHT22;49504;48.336;14.472;2023-03-04T21:19:25;25.10;36.50
63371;DHT22;49504;48.336;14.472;2023-03-04T21:22:48;25.10;37.20
63371;DHT22;49504;48.336;14.472;2023-03-04T21:29:02;25.10;36.50
63371;DHT22;49504;48.336;14.472;2023-03-04T21:32:24;25.10;37.20
63371;DHT22;49504;48.336;14.472;2023-03-04T21:35:49;25.10;37.20
63371;DHT22;49504;48.336;14.472;2023-03-04T21:39:14;25.10;37.10
63371;DHT22;49504;48.336;14.472;2023-03-04T21:42:36;25.10;37.20
63371;DHT22;49504;48.336;14.472;2023-03-04T21:45:58;25.10;37.20
63371;DHT22;49504;48.336;14.472;2023-03-04T21:49:20;25.10;37.20
63371;DHT22;49504;48.336;14.472;2023-03-04T21:52:41;25.10;37.20
63371;DHT22;49504;48.336;14.472;2023-03-04T21:56:03;25.10;37.10
63371;DHT22;49504;48.336;14.472;2023-03-04T21:59:24;25.10;37.00
63371;DHT22;49504;48.336;14.472;2023-03-04T22:02:47;25.10;37.10
63371;DHT22;49504;48.336;14.472;2023-03-04T22:06:09;25.10;37.10
63371;DHT22;49504;48.336;14.472;2023-03-04T22:09:31;25.10;37.00
63371;DHT22;49504;48.336;14.472;2023-03-04T22:14:39;25.10;36.50
63371;DHT22;49504;48.336;14.472;2023-03-04T22:18:01;25.10;37.10
63371;DHT22;49504;48.336;14.472;2023-03-04T22:21:22;25.10;37.10
63371;DHT22;49504;48.336;14.472;2023-03-04T22:24:43;25.10;37.00
63371;DHT22;49504;48.336;14.472;2023-03-04T22:28:05;25.10;37.00
63371;DHT22;49504;48.336;14.472;2023-03-04T22:31:29;25.10;37.00
63371;DHT22;49504;48.336;14.472;2023-03-04T22:34:51;25.10;37.10
63371;DHT22;49504;48.336;14.472;2023-03-04T22:38:12;25.10;37.10
63371;DHT22;49504;48.336;14.472;2023-03-04T22:41:34;25.10;37.00
63371;DHT22;49504;48.336;14.472;2023-03-04T22:44:55;25.10;37.00
63371;DHT22;49504;48.336;14.472;2023-03-04T22:48:18;25.10;37.10
63371;DHT22;49504;48.336;14.472;2023-03-04T22:51:41;25.10;37.00
63371;DHT22;49504;48.336;14.472;2023-03-04T22:55:03;25.10;37.10
63371;DHT22;49504;48.336;14.472;2023-03-04T22:58:25;25.10;37.00
63371;DHT22;49504;48.336;14.472;2023-03-04T23:01:46;25.00;37.00
63371;DHT22;49504;48.336;14.472;2023-03-04T23:05:10;25.10;37.10
63371;DHT22;49504;48.336;14.472;2023-03-04T23:08:31;25.10;37.10
63371;DHT22;49504;48.336;14.472;2023-03-04T23:11:53;25.00;37.00
63371;DHT22;49504;48.336;14.472;2023-03-04T23:15:15;25.00;37.10
63371;DHT22;49504;48.336;14.472;2023-03-04T23:18:39;25.10;37.10
63371;DHT22;49504;48.336;14.472;2023-03-04T23:22:02;25.00;37.10
63371;DHT22;49504;48.336;14.472;2023-03-04T23:25:23;25.00;37.10
63371;DHT22;49504;48.336;14.472;2023-03-04T23:28:44;25.00;37.10
63371;DHT22;49504;48.336;14.472;2023-03-04T23:32:06;25.00;37.10
63371;DHT22;49504;48.336;14.472;2023-03-04T23:35:27;25.00;37.20
63371;DHT22;49504;48.336;14.472;2023-03-04T23:38:50;25.00;37.20
63371;DHT22;49504;48.336;14.472;2023-03-04T23:42:11;25.00;37.20
63371;DHT22;49504;48.336;14.472;2023-03-04T23:45:32;25.00;37.20
63371;DHT22;49504;48.336;14.472;2023-03-04T23:48:53;25.00;37.20
63371;DHT22;49504;48.336;14.472;2023-03-04T23:52:15;25.00;37.20
63371;DHT22;49504;48.336;14.472;2023-03-04T23:55:41;25.00;37.20
63371;DHT22;49504;48.336;14.472;2023-03-04T23:59:02;25.00;37.20
